sensor_id;sensor_type;location;lat;lon;timestamp;temperature;humidity
13569;DHT22;6856;51.460;7.158;2023-02-18T00:00:18;14.10;69.00
13569;DHT22;6856;51.460;7.158;2023-02-18T00:02:54;14.10;69.10
13569;DHT22;6856;51.460;7.158;2023-02-18T00:05:51;14.10;69.00
13569;DHT22;6856;51.460;7.158;2023-02-18T00:08:30;14.20;69.20
13569;DHT22;6856;51.460;7.158;2023-02-18T00:11:04;14.10;69.00
13569;DHT22;6856;51.460;7.158;2023-02-18T00:13:40;14.10;69.10
13569;DHT22;6856;51.460;7.158;2023-02-18T00:16:14;14.20;69.10
13569;DHT22;6856;51.460;7.158;2023-02-18T00:18:49;14.10;69.00
13569;DHT22;6856;51.460;7.158;2023-02-18T00:21:27;14.10;69.10
13569;DHT22;6856;51.460;7.158;2023-02-18T00:24:04;14.10;68.50
13569;DHT22;6856;51.460;7.158;2023-02-18T00:26:39;14.10;69.00
13569;DHT22;6856;51.460;7.158;2023-02-18T00:29:15;14.10;69.90
13569;DHT22;6856;51.460;7.158;2023-02-18T00:31:50;14.10;69.10
13569;DHT22;6856;51.460;7.158;2023-02-18T00:34:24;14.10;69.10
13569;DHT22;6856;51.460;7.158;2023-02-18T00:36:58;14.10;69.20
13569;DHT22;6856;51.460;7.158;2023-02-18T00:39:33;14.10;69.20
13569;DHT22;6856;51.460;7.158;2023-02-18T00:42:06;14.10;69.20
13569;DHT22;6856;51.460;7.158;2023-02-18T00:44:42;14.10;69.10
13569;DHT22;6856;51.460;7.158;2023-02-18T00:47:16;14.10;69.20
13569;DHT22;6856;51.460;7.158;2023-02-18T00:49:51;14.10;69.30
13569;DHT22;6856;51.460;7.158;2023-02-18T00:52:29;14.10;69.30
13569;DHT22;6856;51.460;7.158;2023-02-18T00:55:03;14.10;69.30
13569;DHT22;6856;51.460;7.158;2023-02-18T00:57:38;14.10;69.40
13569;DHT22;6856;51.460;7.158;2023-02-18T01:00:15;14.00;69.20
13569;DHT22;6856;51.460;7.158;2023-02-18T01:02:49;14.10;69.40
13569;DHT22;6856;51.460;7.158;2023-02-18T01:05:25;14.10;69.40
13569;DHT22;6856;51.460;7.158;2023-02-18T01:08:00;14.00;69.40
13569;DHT22;6856;51.460;7.158;2023-02-18T01:10:33;14.00;69.50
13569;DHT22;6856;51.460;7.158;2023-02-18T01:13:08;14.00;69.60
13569;DHT22;6856;51.460;7.158;2023-02-18T01:15:45;14.00;69.60
13569;DHT22;6856;51.460;7.158;2023-02-18T01:18:19;14.00;69.70
13569;DHT22;6856;51.460;7.158;2023-02-18T01:20:54;14.00;69.70
13569;DHT22;6856;51.460;7.158;2023-02-18T01:23:32;14.00;69.80
13569;DHT22;6856;51.460;7.158;2023-02-18T01:26:06;14.00;70.00
13569;DHT22;6856;51.460;7.158;2023-02-18T01:28:42;14.00;70.50
13569;DHT22;6856;51.460;7.158;2023-02-18T01:31:18;14.00;69.90
13569;DHT22;6856;51.460;7.158;2023-02-18T01:33:52;13.90;69.90
13569;DHT22;6856;51.460;7.158;2023-02-18T01:36:26;13.90;70.00
13569;DHT22;6856;51.460;7.158;2023-02-18T01:39:01;13.90;70.10
13569;DHT22;6856;51.460;7.158;2023-02-18T01:41:35;13.90;70.20
13569;DHT22;6856;51.460;7.158;2023-02-18T01:44:13;13.90;70.20
13569;DHT22;6856;51.460;7.158;2023-02-18T01:46:52;13.90;70.40
13569;DHT22;6856;51.460;7.158;2023-02-18T01:49:30;13.90;70.30
13569;DHT22;6856;51.460;7.158;2023-02-18T01:52:11;13.90;70.30
13569;DHT22;6856;51.460;7.158;2023-02-18T01:54:52;14.00;70.40
13569;DHT22;6856;51.460;7.158;2023-02-18T01:57:30;13.90;70.50
13569;DHT22;6856;51.460;7.158;2023-02-18T02:00:11;13.90;70.40
13569;DHT22;6856;51.460;7.158;2023-02-18T02:02:51;13.90;70.50
13569;DHT22;6856;51.460;7.158;2023-02-18T02:05:31;13.90;70.40
13569;DHT22;6856;51.460;7.158;2023-02-18T02:08:07;13.90;70.40
13569;DHT22;6856;51.460;7.158;2023-02-18T02:10:58;13.90;70.40
13569;DHT22;6856;51.460;7.158;2023-02-18T02:13:49;13.80;70.40
13569;DHT22;6856;51.460;7.158;2023-02-18T02:16:39;13.80;70.40
13569;DHT22;6856;51.460;7.158;2023-02-18T02:19:56;13.80;70.40
13569;DHT22;6856;51.460;7.158;2023-02-18T02:23:27;13.80;70.60
13569;DHT22;6856;51.460;7.158;2023-02-18T02:30:18;13.80;70.50
13569;DHT22;6856;51.460;7.158;2023-02-18T02:33:37;13.80;70.60
13569;DHT22;6856;51.460;7.158;2023-02-18T02:36:40;13.80;70.50
13569;DHT22;6856;51.460;7.158;2023-02-18T02:39:24;13.80;70.20
13569;DHT22;6856;51.460;7.158;2023-02-18T02:42:11;13.80;70.30
13569;DHT22;6856;51.460;7.158;2023-02-18T02:44:55;13.80;70.40
13569;DHT22;6856;51.460;7.158;2023-02-18T02:47:42;13.80;71.00
13569;DHT22;6856;51.460;7.158;2023-02-18T02:50:27;13.90;70.40
13569;DHT22;6856;51.460;7.158;2023-02-18T02:53:15;13.80;70.30
13569;DHT22;6856;51.460;7.158;2023-02-18T02:55:52;13.80;70.30
13569;DHT22;6856;51.460;7.158;2023-02-18T02:58:27;13.80;70.20
13569;DHT22;6856;51.460;7.158;2023-02-18T03:01:26;13.80;70.20
13569;DHT22;6856;51.460;7.158;2023-02-18T03:04:41;13.80;70.40
13569;DHT22;6856;51.460;7.158;2023-02-18T03:07:53;13.80;70.40
13569;DHT22;6856;51.460;7.158;2023-02-18T03:10:54;13.90;70.40
13569;DHT22;6856;51.460;7.158;2023-02-18T03:13:45;13.90;70.20
13569;DHT22;6856;51.460;7.158;2023-02-18T03:16:33;13.90;70.30
13569;DHT22;6856;51.460;7.158;2023-02-18T03:19:21;13.90;70.20
13569;DHT22;6856;51.460;7.158;2023-02-18T03:22:05;13.80;70.20
13569;DHT22;6856;51.460;7.158;2023-02-18T03:24:45;13.80;70.20
13569;DHT22;6856;51.460;7.158;2023-02-18T03:27:26;13.90;70.20
13569;DHT22;6856;51.460;7.158;2023-02-18T03:30:09;13.80;70.20
13569;DHT22;6856;51.460;7.158;2023-02-18T03:32:48;13.80;70.40
13569;DHT22;6856;51.460;7.158;2023-02-18T03:35:27;13.80;70.40
13569;DHT22;6856;51.460;7.158;2023-02-18T03:38:08;13.70;70.50
13569;DHT22;6856;51.460;7.158;2023-02-18T03:40:47;13.70;70.60
13569;DHT22;6856;51.460;7.158;2023-02-18T03:43:23;13.70;70.60
13569;DHT22;6856;51.460;7.158;2023-02-18T03:45:59;13.70;70.70
13569;DHT22;6856;51.460;7.158;2023-02-18T03:48:34;13.70;70.90
13569;DHT22;6856;51.460;7.158;2023-02-18T03:51:09;13.70;70.90
13569;DHT22;6856;51.460;7.158;2023-02-18T03:53:43;13.70;71.00
13569;DHT22;6856;51.460;7.158;2023-02-18T03:56:19;13.70;71.00
13569;DHT22;6856;51.460;7.158;2023-02-18T03:59:09;13.70;71.00
13569;DHT22;6856;51.460;7.158;2023-02-18T04:01:45;13.70;71.30
13569;DHT22;6856;51.460;7.158;2023-02-18T04:04:19;13.60;71.10
13569;DHT22;6856;51.460;7.158;2023-02-18T04:06:52;13.40;71.00
13569;DHT22;6856;51.460;7.158;2023-02-18T04:09:26;13.60;71.30
13569;DHT22;6856;51.460;7.158;2023-02-18T04:12:00;13.60;71.30
13569;DHT22;6856;51.460;7.158;2023-02-18T04:14:35;13.60;71.30
13569;DHT22;6856;51.460;7.158;2023-02-18T04:17:09;13.60;71.50
13569;DHT22;6856;51.460;7.158;2023-02-18T04:19:44;13.60;71.40
13569;DHT22;6856;51.460;7.158;2023-02-18T04:22:17;13.60;71.50
13569;DHT22;6856;51.460;7.158;2023-02-18T04:24:51;13.60;71.50
13569;DHT22;6856;51.460;7.158;2023-02-18T04:27:25;13.60;71.70
13569;DHT22;6856;51.460;7.158;2023-02-18T04:30:03;13.60;71.70
13569;DHT22;6856;51.460;7.158;2023-02-18T04:32:38;13.60;71.80
13569;DHT22;6856;51.460;7.158;2023-02-18T04:35:13;13.60;71.70
13569;DHT22;6856;51.460;7.158;2023-02-18T04:37:47;13.60;71.90
13569;DHT22;6856;51.460;7.158;2023-02-18T04:40:21;13.60;71.90
13569;DHT22;6856;51.460;7.158;2023-02-18T04:42:57;13.60;71.90
13569;DHT22;6856;51.460;7.158;2023-02-18T04:45:32;13.60;72.00
13569;DHT22;6856;51.460;7.158;2023-02-18T04:48:06;13.60;72.00
13569;DHT22;6856;51.460;7.158;2023-02-18T04:50:41;13.60;72.00
13569;DHT22;6856;51.460;7.158;2023-02-18T04:53:16;13.60;72.10
13569;DHT22;6856;51.460;7.158;2023-02-18T04:55:50;13.60;72.10
13569;DHT22;6856;51.460;7.158;2023-02-18T04:58:26;13.60;72.10
13569;DHT22;6856;51.460;7.158;2023-02-18T05:01:03;13.60;72.00
13569;DHT22;6856;51.460;7.158;2023-02-18T05:03:37;13.60;72.20
13569;DHT22;6856;51.460;7.158;2023-02-18T05:06:12;13.60;71.80
13569;DHT22;6856;51.460;7.158;2023-02-18T05:08:47;13.60;72.20
13569;DHT22;6856;51.460;7.158;2023-02-18T05:11:21;13.50;72.10
13569;DHT22;6856;51.460;7.158;2023-02-18T05:13:55;13.50;72.10
13569;DHT22;6856;51.460;7.158;2023-02-18T05:16:31;13.50;72.10
13569;DHT22;6856;51.460;7.158;2023-02-18T05:19:06;13.50;72.30
13569;DHT22;6856;51.460;7.158;2023-02-18T05:21:47;13.50;72.30
13569;DHT22;6856;51.460;7.158;2023-02-18T05:24:21;13.70;72.50
13569;DHT22;6856;51.460;7.158;2023-02-18T05:26:55;13.50;73.10
13569;DHT22;6856;51.460;7.158;2023-02-18T05:29:28;13.40;72.30
13569;DHT22;6856;51.460;7.158;2023-02-18T05:32:04;13.40;72.40
13569;DHT22;6856;51.460;7.158;2023-02-18T05:34:39;13.40;72.60
13569;DHT22;6856;51.460;7.158;2023-02-18T05:37:13;13.40;72.50
13569;DHT22;6856;51.460;7.158;2023-02-18T05:39:50;13.40;72.40
13569;DHT22;6856;51.460;7.158;2023-02-18T05:42:24;13.40;72.50
13569;DHT22;6856;51.460;7.158;2023-02-18T05:44:58;13.40;72.40
13569;DHT22;6856;51.460;7.158;2023-02-18T05:47:34;13.40;72.40
13569;DHT22;6856;51.460;7.158;2023-02-18T05:50:09;13.40;72.50
13569;DHT22;6856;51.460;7.158;2023-02-18T05:52:43;13.40;72.50
13569;DHT22;6856;51.460;7.158;2023-02-18T05:55:18;13.30;72.50
13569;DHT22;6856;51.460;7.158;2023-02-18T05:57:52;13.20;72.60
13569;DHT22;6856;51.460;7.158;2023-02-18T06:00:26;13.30;72.70
13569;DHT22;6856;51.460;7.158;2023-02-18T06:03:07;13.30;72.70
13569;DHT22;6856;51.460;7.158;2023-02-18T06:05:48;13.30;72.80
13569;DHT22;6856;51.460;7.158;2023-02-18T06:08:23;13.30;72.80
13569;DHT22;6856;51.460;7.158;2023-02-18T06:10:57;13.50;72.70
13569;DHT22;6856;51.460;7.158;2023-02-18T06:13:31;13.30;72.70
13569;DHT22;6856;51.460;7.158;2023-02-18T06:16:06;13.30;72.60
13569;DHT22;6856;51.460;7.158;2023-02-18T06:18:44;13.50;73.00
13569;DHT22;6856;51.460;7.158;2023-02-18T06:21:21;13.30;72.80
13569;DHT22;6856;51.460;7.158;2023-02-18T06:23:55;13.30;72.90
13569;DHT22;6856;51.460;7.158;2023-02-18T06:26:30;13.30;73.00
13569;DHT22;6856;51.460;7.158;2023-02-18T06:29:07;13.20;72.80
13569;DHT22;6856;51.460;7.158;2023-02-18T06:31:41;13.20;72.70
13569;DHT22;6856;51.460;7.158;2023-02-18T06:34:17;13.20;72.80
13569;DHT22;6856;51.460;7.158;2023-02-18T06:36:54;13.20;72.80
13569;DHT22;6856;51.460;7.158;2023-02-18T06:39:28;13.20;72.60
13569;DHT22;6856;51.460;7.158;2023-02-18T06:42:03;13.20;72.80
13569;DHT22;6856;51.460;7.158;2023-02-18T06:44:39;13.20;72.70
13569;DHT22;6856;51.460;7.158;2023-02-18T06:47:13;13.10;72.90
13569;DHT22;6856;51.460;7.158;2023-02-18T06:49:49;13.10;72.90
13569;DHT22;6856;51.460;7.158;2023-02-18T06:52:26;13.10;73.00
13569;DHT22;6856;51.460;7.158;2023-02-18T06:55:01;13.10;73.30
13569;DHT22;6856;51.460;7.158;2023-02-18T06:57:35;13.10;73.10
13569;DHT22;6856;51.460;7.158;2023-02-18T07:00:09;13.10;73.10
13569;DHT22;6856;51.460;7.158;2023-02-18T07:02:43;13.10;73.20
13569;DHT22;6856;51.460;7.158;2023-02-18T07:05:19;13.20;73.20
13569;DHT22;6856;51.460;7.158;2023-02-18T07:07:53;13.10;73.20
13569;DHT22;6856;51.460;7.158;2023-02-18T07:10:27;13.10;73.10
13569;DHT22;6856;51.460;7.158;2023-02-18T07:13:02;13.10;73.10
13569;DHT22;6856;51.460;7.158;2023-02-18T07:15:39;13.10;73.40
13569;DHT22;6856;51.460;7.158;2023-02-18T07:18:13;13.10;73.30
13569;DHT22;6856;51.460;7.158;2023-02-18T07:20:50;13.10;73.10
13569;DHT22;6856;51.460;7.158;2023-02-18T07:23:23;13.10;73.40
13569;DHT22;6856;51.460;7.158;2023-02-18T07:26:04;13.10;73.10
13569;DHT22;6856;51.460;7.158;2023-02-18T07:28:42;13.10;73.50
13569;DHT22;6856;51.460;7.158;2023-02-18T07:31:19;13.10;73.50
13569;DHT22;6856;51.460;7.158;2023-02-18T07:33:53;13.10;73.30
13569;DHT22;6856;51.460;7.158;2023-02-18T07:36:31;13.00;73.20
13569;DHT22;6856;51.460;7.158;2023-02-18T07:39:08;13.00;73.30
13569;DHT22;6856;51.460;7.158;2023-02-18T07:41:42;13.00;73.30
13569;DHT22;6856;51.460;7.158;2023-02-18T07:44:20;13.10;73.30
13569;DHT22;6856;51.460;7.158;2023-02-18T07:47:09;13.00;73.30
13569;DHT22;6856;51.460;7.158;2023-02-18T07:49:45;12.80;72.90
13569;DHT22;6856;51.460;7.158;2023-02-18T07:52:24;13.00;73.30
13569;DHT22;6856;51.460;7.158;2023-02-18T07:54:58;13.00;73.20
13569;DHT22;6856;51.460;7.158;2023-02-18T07:57:33;13.10;72.90
13569;DHT22;6856;51.460;7.158;2023-02-18T08:00:27;13.10;73.00
13569;DHT22;6856;51.460;7.158;2023-02-18T08:03:04;13.10;73.10
13569;DHT22;6856;51.460;7.158;2023-02-18T08:05:38;13.10;72.90
13569;DHT22;6856;51.460;7.158;2023-02-18T08:08:17;13.10;72.80
13569;DHT22;6856;51.460;7.158;2023-02-18T08:10:55;13.10;72.90
13569;DHT22;6856;51.460;7.158;2023-02-18T08:13:33;13.10;73.00
13569;DHT22;6856;51.460;7.158;2023-02-18T08:16:09;13.10;72.90
13569;DHT22;6856;51.460;7.158;2023-02-18T08:18:43;13.10;72.90
13569;DHT22;6856;51.460;7.158;2023-02-18T08:21:20;13.00;72.80
13569;DHT22;6856;51.460;7.158;2023-02-18T08:24:01;13.00;72.90
13569;DHT22;6856;51.460;7.158;2023-02-18T08:26:38;13.00;73.00
13569;DHT22;6856;51.460;7.158;2023-02-18T08:29:30;13.10;72.70
13569;DHT22;6856;51.460;7.158;2023-02-18T08:32:05;13.00;72.90
13569;DHT22;6856;51.460;7.158;2023-02-18T08:34:39;13.10;72.70
13569;DHT22;6856;51.460;7.158;2023-02-18T08:37:14;13.00;72.80
13569;DHT22;6856;51.460;7.158;2023-02-18T08:39:50;13.00;72.80
13569;DHT22;6856;51.460;7.158;2023-02-18T08:42:27;13.00;72.70
13569;DHT22;6856;51.460;7.158;2023-02-18T08:45:02;13.10;72.80
13569;DHT22;6856;51.460;7.158;2023-02-18T08:47:37;13.00;72.90
13569;DHT22;6856;51.460;7.158;2023-02-18T08:50:32;13.00;72.60
13569;DHT22;6856;51.460;7.158;2023-02-18T08:53:07;13.00;72.80
13569;DHT22;6856;51.460;7.158;2023-02-18T08:55:43;13.00;72.60
13569;DHT22;6856;51.460;7.158;2023-02-18T08:58:44;13.00;71.60
13569;DHT22;6856;51.460;7.158;2023-02-18T09:01:20;13.00;72.60
13569;DHT22;6856;51.460;7.158;2023-02-18T09:03:55;12.90;72.40
13569;DHT22;6856;51.460;7.158;2023-02-18T09:06:29;12.90;72.10
13569;DHT22;6856;51.460;7.158;2023-02-18T09:09:05;12.90;71.90
13569;DHT22;6856;51.460;7.158;2023-02-18T09:11:41;12.90;72.20
13569;DHT22;6856;51.460;7.158;2023-02-18T09:14:15;12.80;72.00
13569;DHT22;6856;51.460;7.158;2023-02-18T09:16:49;12.80;71.70
13569;DHT22;6856;51.460;7.158;2023-02-18T09:19:24;12.80;71.70
13569;DHT22;6856;51.460;7.158;2023-02-18T09:21:57;12.80;71.50
13569;DHT22;6856;51.460;7.158;2023-02-18T09:24:36;12.70;71.40
13569;DHT22;6856;51.460;7.158;2023-02-18T09:27:12;12.70;71.70
13569;DHT22;6856;51.460;7.158;2023-02-18T09:29:46;12.70;71.60
13569;DHT22;6856;51.460;7.158;2023-02-18T09:32:21;12.70;71.30
13569;DHT22;6856;51.460;7.158;2023-02-18T09:35:06;12.70;71.30
13569;DHT22;6856;51.460;7.158;2023-02-18T09:37:40;12.70;71.30
13569;DHT22;6856;51.460;7.158;2023-02-18T09:40:23;12.70;70.80
13569;DHT22;6856;51.460;7.158;2023-02-18T09:43:16;12.70;71.30
13569;DHT22;6856;51.460;7.158;2023-02-18T09:45:59;12.70;71.10
13569;DHT22;6856;51.460;7.158;2023-02-18T09:48:36;12.70;70.40
13569;DHT22;6856;51.460;7.158;2023-02-18T09:51:13;12.70;70.10
13569;DHT22;6856;51.460;7.158;2023-02-18T09:53:53;12.70;70.90
13569;DHT22;6856;51.460;7.158;2023-02-18T09:56:32;12.70;70.70
13569;DHT22;6856;51.460;7.158;2023-02-18T09:59:17;12.70;71.00
13569;DHT22;6856;51.460;7.158;2023-02-18T10:01:56;12.70;70.90
13569;DHT22;6856;51.460;7.158;2023-02-18T10:04:44;12.70;70.90
13569;DHT22;6856;51.460;7.158;2023-02-18T10:07:31;12.70;69.80
13569;DHT22;6856;51.460;7.158;2023-02-18T10:10:17;12.70;70.80
13569;DHT22;6856;51.460;7.158;2023-02-18T10:13:00;12.70;71.00
13569;DHT22;6856;51.460;7.158;2023-02-18T10:15:38;12.70;71.00
13569;DHT22;6856;51.460;7.158;2023-02-18T10:18:24;12.70;70.90
13569;DHT22;6856;51.460;7.158;2023-02-18T10:21:06;12.70;71.20
13569;DHT22;6856;51.460;7.158;2023-02-18T10:23:48;12.70;71.00
13569;DHT22;6856;51.460;7.158;2023-02-18T10:26:34;12.70;71.00
13569;DHT22;6856;51.460;7.158;2023-02-18T10:29:23;12.70;70.90
13569;DHT22;6856;51.460;7.158;2023-02-18T10:32:05;12.70;70.90
13569;DHT22;6856;51.460;7.158;2023-02-18T10:34:48;12.70;70.80
13569;DHT22;6856;51.460;7.158;2023-02-18T10:37:45;12.70;70.70
13569;DHT22;6856;51.460;7.158;2023-02-18T10:40:32;12.30;70.80
13569;DHT22;6856;51.460;7.158;2023-02-18T10:43:19;12.60;71.00
13569;DHT22;6856;51.460;7.158;2023-02-18T10:46:07;12.60;71.10
13569;DHT22;6856;51.460;7.158;2023-02-18T10:49:22;12.60;71.10
13569;DHT22;6856;51.460;7.158;2023-02-18T10:52:15;12.60;71.40
13569;DHT22;6856;51.460;7.158;2023-02-18T10:54:57;12.60;71.30
13569;DHT22;6856;51.460;7.158;2023-02-18T10:57:32;12.70;71.10
13569;DHT22;6856;51.460;7.158;2023-02-18T11:00:16;12.60;71.30
13569;DHT22;6856;51.460;7.158;2023-02-18T11:03:13;12.60;71.50
13569;DHT22;6856;51.460;7.158;2023-02-18T11:05:54;12.60;71.50
13569;DHT22;6856;51.460;7.158;2023-02-18T11:08:43;12.60;72.20
13569;DHT22;6856;51.460;7.158;2023-02-18T11:11:24;12.60;71.70
13569;DHT22;6856;51.460;7.158;2023-02-18T11:14:06;12.60;71.40
13569;DHT22;6856;51.460;7.158;2023-02-18T11:16:43;12.60;71.50
13569;DHT22;6856;51.460;7.158;2023-02-18T11:19:31;12.60;71.60
13569;DHT22;6856;51.460;7.158;2023-02-18T11:22:14;12.50;71.70
13569;DHT22;6856;51.460;7.158;2023-02-18T11:24:55;12.50;71.80
13569;DHT22;6856;51.460;7.158;2023-02-18T11:27:42;12.50;71.80
13569;DHT22;6856;51.460;7.158;2023-02-18T11:30:23;12.50;71.90
13569;DHT22;6856;51.460;7.158;2023-02-18T11:33:02;12.50;71.90
13569;DHT22;6856;51.460;7.158;2023-02-18T11:35:48;12.50;72.00
13569;DHT22;6856;51.460;7.158;2023-02-18T11:38:27;12.50;72.10
13569;DHT22;6856;51.460;7.158;2023-02-18T11:41:09;12.50;72.10
13569;DHT22;6856;51.460;7.158;2023-02-18T11:43:49;12.50;72.30
13569;DHT22;6856;51.460;7.158;2023-02-18T11:46:40;12.50;72.40
13569;DHT22;6856;51.460;7.158;2023-02-18T11:49:31;12.50;72.70
13569;DHT22;6856;51.460;7.158;2023-02-18T11:52:16;12.60;72.70
13569;DHT22;6856;51.460;7.158;2023-02-18T11:55:02;12.50;72.80
13569;DHT22;6856;51.460;7.158;2023-02-18T11:57:40;12.50;72.50
13569;DHT22;6856;51.460;7.158;2023-02-18T12:00:24;12.50;72.60
13569;DHT22;6856;51.460;7.158;2023-02-18T12:03:17;12.50;73.40
13569;DHT22;6856;51.460;7.158;2023-02-18T12:06:02;12.50;72.60
13569;DHT22;6856;51.460;7.158;2023-02-18T12:08:48;12.50;72.70
13569;DHT22;6856;51.460;7.158;2023-02-18T12:11:32;12.50;72.90
13569;DHT22;6856;51.460;7.158;2023-02-18T12:14:12;12.50;73.20
13569;DHT22;6856;51.460;7.158;2023-02-18T12:17:13;12.50;73.30
13569;DHT22;6856;51.460;7.158;2023-02-18T12:20:23;12.50;73.40
13569;DHT22;6856;51.460;7.158;2023-02-18T12:23:15;12.50;73.20
13569;DHT22;6856;51.460;7.158;2023-02-18T12:26:00;12.50;72.50
13569;DHT22;6856;51.460;7.158;2023-02-18T12:29:22;12.50;73.10
13569;DHT22;6856;51.460;7.158;2023-02-18T12:32:25;12.50;73.10
13569;DHT22;6856;51.460;7.158;2023-02-18T12:35:39;12.50;73.00
13569;DHT22;6856;51.460;7.158;2023-02-18T12:39:02;12.50;73.90
13569;DHT22;6856;51.460;7.158;2023-02-18T12:41:57;12.50;73.30
13569;DHT22;6856;51.460;7.158;2023-02-18T12:45:18;12.50;73.40
13569;DHT22;6856;51.460;7.158;2023-02-18T12:48:30;12.50;73.50
13569;DHT22;6856;51.460;7.158;2023-02-18T12:51:27;12.50;73.60
13569;DHT22;6856;51.460;7.158;2023-02-18T12:54:23;12.60;73.60
13569;DHT22;6856;51.460;7.158;2023-02-18T12:57:38;12.60;73.70
13569;DHT22;6856;51.460;7.158;2023-02-18T13:00:47;12.60;73.70
13569;DHT22;6856;51.460;7.158;2023-02-18T13:10:41;12.60;74.00
13569;DHT22;6856;51.460;7.158;2023-02-18T13:13:27;12.60;73.90
13569;DHT22;6856;51.460;7.158;2023-02-18T13:16:09;12.70;73.80
13569;DHT22;6856;51.460;7.158;2023-02-18T13:19:06;12.90;73.70
13569;DHT22;6856;51.460;7.158;2023-02-18T13:21:57;12.70;73.80
13569;DHT22;6856;51.460;7.158;2023-02-18T13:24:38;12.70;73.60
13569;DHT22;6856;51.460;7.158;2023-02-18T13:27:25;12.70;73.80
13569;DHT22;6856;51.460;7.158;2023-02-18T13:30:18;12.70;73.90
13569;DHT22;6856;51.460;7.158;2023-02-18T13:33:18;12.70;73.90
13569;DHT22;6856;51.460;7.158;2023-02-18T13:36:05;12.70;74.10
13569;DHT22;6856;51.460;7.158;2023-02-18T13:39:13;12.70;74.00
13569;DHT22;6856;51.460;7.158;2023-02-18T13:42:11;12.70;74.00
13569;DHT22;6856;51.460;7.158;2023-02-18T13:48:21;12.80;74.30
13569;DHT22;6856;51.460;7.158;2023-02-18T13:51:02;12.80;74.30
13569;DHT22;6856;51.460;7.158;2023-02-18T13:53:43;12.80;74.00
13569;DHT22;6856;51.460;7.158;2023-02-18T13:56:28;12.80;74.00
13569;DHT22;6856;51.460;7.158;2023-02-18T13:59:08;12.80;73.90
13569;DHT22;6856;51.460;7.158;2023-02-18T14:01:50;12.80;74.10
13569;DHT22;6856;51.460;7.158;2023-02-18T14:04:52;12.80;74.20
13569;DHT22;6856;51.460;7.158;2023-02-18T14:08:02;12.80;74.50
13569;DHT22;6856;51.460;7.158;2023-02-18T14:11:32;12.90;74.20
13569;DHT22;6856;51.460;7.158;2023-02-18T14:14:33;12.90;74.60
13569;DHT22;6856;51.460;7.158;2023-02-18T14:17:34;12.90;74.50
13569;DHT22;6856;51.460;7.158;2023-02-18T14:20:49;12.90;74.30
13569;DHT22;6856;51.460;7.158;2023-02-18T14:23:47;12.90;74.50
13569;DHT22;6856;51.460;7.158;2023-02-18T14:26:36;12.90;74.40
13569;DHT22;6856;51.460;7.158;2023-02-18T14:29:26;12.90;74.30
13569;DHT22;6856;51.460;7.158;2023-02-18T14:32:03;12.90;73.60
13569;DHT22;6856;51.460;7.158;2023-02-18T14:35:11;12.90;74.20
13569;DHT22;6856;51.460;7.158;2023-02-18T14:38:19;13.00;74.30
13569;DHT22;6856;51.460;7.158;2023-02-18T14:41:27;13.00;74.40
13569;DHT22;6856;51.460;7.158;2023-02-18T14:44:41;12.90;74.50
13569;DHT22;6856;51.460;7.158;2023-02-18T14:47:31;13.00;74.60
13569;DHT22;6856;51.460;7.158;2023-02-18T14:50:15;12.70;74.20
13569;DHT22;6856;51.460;7.158;2023-02-18T14:53:04;13.00;74.90
13569;DHT22;6856;51.460;7.158;2023-02-18T14:55:46;13.00;74.30
13569;DHT22;6856;51.460;7.158;2023-02-18T14:58:31;12.80;74.10
13569;DHT22;6856;51.460;7.158;2023-02-18T15:01:34;13.00;74.50
13569;DHT22;6856;51.460;7.158;2023-02-18T15:04:13;13.00;74.60
13569;DHT22;6856;51.460;7.158;2023-02-18T15:06:57;13.00;75.30
13569;DHT22;6856;51.460;7.158;2023-02-18T15:09:48;13.00;74.70
13569;DHT22;6856;51.460;7.158;2023-02-18T15:12:27;13.30;74.30
13569;DHT22;6856;51.460;7.158;2023-02-18T15:15:03;13.10;74.50
13569;DHT22;6856;51.460;7.158;2023-02-18T15:17:43;13.10;74.60
13569;DHT22;6856;51.460;7.158;2023-02-18T15:20:20;13.10;74.60
13569;DHT22;6856;51.460;7.158;2023-02-18T15:22:55;13.10;74.60
13569;DHT22;6856;51.460;7.158;2023-02-18T15:25:30;13.10;74.50
13569;DHT22;6856;51.460;7.158;2023-02-18T15:28:04;13.10;74.40
13569;DHT22;6856;51.460;7.158;2023-02-18T15:30:38;13.20;74.50
13569;DHT22;6856;51.460;7.158;2023-02-18T15:33:17;13.20;74.40
13569;DHT22;6856;51.460;7.158;2023-02-18T15:35:59;13.10;74.50
13569;DHT22;6856;51.460;7.158;2023-02-18T15:38:35;13.20;74.70
13569;DHT22;6856;51.460;7.158;2023-02-18T15:41:15;13.20;74.40
13569;DHT22;6856;51.460;7.158;2023-02-18T15:43:54;13.40;74.80
13569;DHT22;6856;51.460;7.158;2023-02-18T15:46:35;12.90;74.10
13569;DHT22;6856;51.460;7.158;2023-02-18T15:49:13;13.20;74.50
13569;DHT22;6856;51.460;7.158;2023-02-18T15:51:48;13.20;74.60
13569;DHT22;6856;51.460;7.158;2023-02-18T15:54:24;13.20;74.50
13569;DHT22;6856;51.460;7.158;2023-02-18T15:57:02;13.20;74.70
13569;DHT22;6856;51.460;7.158;2023-02-18T15:59:44;13.20;74.60
13569;DHT22;6856;51.460;7.158;2023-02-18T16:02:23;13.20;74.60
13569;DHT22;6856;51.460;7.158;2023-02-18T16:04:59;13.20;74.80
13569;DHT22;6856;51.460;7.158;2023-02-18T16:07:48;13.20;74.60
13569;DHT22;6856;51.460;7.158;2023-02-18T16:10:38;13.20;74.80
13569;DHT22;6856;51.460;7.158;2023-02-18T16:13:18;13.30;74.80
13569;DHT22;6856;51.460;7.158;2023-02-18T16:15:57;13.20;74.50
13569;DHT22;6856;51.460;7.158;2023-02-18T16:18:37;13.30;74.80
13569;DHT22;6856;51.460;7.158;2023-02-18T16:21:24;13.30;74.80
13569;DHT22;6856;51.460;7.158;2023-02-18T16:24:22;13.30;74.90
13569;DHT22;6856;51.460;7.158;2023-02-18T16:26:59;13.30;74.80
13569;DHT22;6856;51.460;7.158;2023-02-18T16:29:40;13.30;74.60
13569;DHT22;6856;51.460;7.158;2023-02-18T16:32:15;13.30;74.60
13569;DHT22;6856;51.460;7.158;2023-02-18T16:34:49;13.30;74.40
13569;DHT22;6856;51.460;7.158;2023-02-18T16:37:23;13.30;74.20
13569;DHT22;6856;51.460;7.158;2023-02-18T16:40:23;13.30;74.40
13569;DHT22;6856;51.460;7.158;2023-02-18T16:43:01;13.30;74.50
13569;DHT22;6856;51.460;7.158;2023-02-18T16:45:45;13.30;74.40
13569;DHT22;6856;51.460;7.158;2023-02-18T16:48:29;13.30;74.40
13569;DHT22;6856;51.460;7.158;2023-02-18T16:51:06;13.30;74.30
13569;DHT22;6856;51.460;7.158;2023-02-18T16:53:46;13.30;74.10
13569;DHT22;6856;51.460;7.158;2023-02-18T16:56:22;13.30;74.10
13569;DHT22;6856;51.460;7.158;2023-02-18T16:58:58;13.30;74.20
13569;DHT22;6856;51.460;7.158;2023-02-18T17:01:37;13.30;74.10
13569;DHT22;6856;51.460;7.158;2023-02-18T17:04:17;13.30;74.20
13569;DHT22;6856;51.460;7.158;2023-02-18T17:06:52;13.30;74.10
13569;DHT22;6856;51.460;7.158;2023-02-18T17:09:26;13.30;74.00
13569;DHT22;6856;51.460;7.158;2023-02-18T17:12:00;13.30;74.00
13569;DHT22;6856;51.460;7.158;2023-02-18T17:14:36;13.40;74.00
13569;DHT22;6856;51.460;7.158;2023-02-18T17:17:20;13.30;73.80
13569;DHT22;6856;51.460;7.158;2023-02-18T17:20:07;13.30;73.50
13569;DHT22;6856;51.460;7.158;2023-02-18T17:22:45;13.30;74.00
13569;DHT22;6856;51.460;7.158;2023-02-18T17:25:25;13.30;73.90
13569;DHT22;6856;51.460;7.158;2023-02-18T17:28:03;13.30;74.00
13569;DHT22;6856;51.460;7.158;2023-02-18T17:30:42;13.40;73.80
13569;DHT22;6856;51.460;7.158;2023-02-18T17:33:20;13.40;73.80